sensor_id;sensor_type;location;lat;lon;timestamp;pressure;altitude;pressure_sealevel;temperature;humidity
23261;BME280;11799;47.740;-3.390;2023-11-22T00:00:51;102830.41;;;10.60;100.00
23261;BME280;11799;47.740;-3.390;2023-11-22T00:03:16;102825.91;;;10.62;100.00
23261;BME280;11799;47.740;-3.390;2023-11-22T00:05:42;102829.69;;;10.56;100.00
23261;BME280;11799;47.740;-3.390;2023-11-22T00:08:07;102826.84;;;10.61;100.00
23261;BME280;11799;47.740;-3.390;2023-11-22T00:10:33;102826.84;;;10.61;100.00
23261;BME280;11799;47.740;-3.390;2023-11-22T00:12:59;102817.22;;;10.60;100.00
23261;BME280;11799;47.740;-3.390;2023-11-22T00:15:25;102822.50;;;10.60;100.00
23261;BME280;11799;47.740;-3.390;2023-11-22T00:17:51;102817.28;;;10.58;100.00
23261;BME280;11799;47.740;-3.390;2023-11-22T00:20:17;102820.00;;;10.57;100.00
23261;BME280;11799;47.740;-3.390;2023-11-22T00:22:43;102813.63;;;10.61;100.00
23261;BME280;11799;47.740;-3.390;2023-11-22T00:25:10;102804.34;;;10.52;100.00
23261;BME280;11799;47.740;-3.390;2023-11-22T00:27:38;102809.28;;;10.60;100.00
23261;BME280;11799;47.740;-3.390;2023-11-22T00:30:04;102796.56;;;10.49;100.00
23261;BME280;11799;47.740;-3.390;2023-11-22T00:32:30;102808.56;;;10.56;100.00
23261;BME280;11799;47.740;-3.390;2023-11-22T00:34:56;102806.78;;;10.57;100.00
23261;BME280;11799;47.740;-3.390;2023-11-22T00:37:22;102808.50;;;10.58;100.00
23261;BME280;11799;47.740;-3.390;2023-11-22T00:39:48;102809.44;;;10.57;100.00
23261;BME280;11799;47.740;-3.390;2023-11-22T00:42:14;102814.63;;;10.58;100.00
23261;BME280;11799;47.740;-3.390;2023-11-22T00:44:39;102819.00;;;10.59;100.00
23261;BME280;11799;47.740;-3.390;2023-11-22T00:47:05;102824.28;;;10.59;100.00
23261;BME280;11799;47.740;-3.390;2023-11-22T00:49:31;102833.00;;;10.62;100.00
23261;BME280;11799;47.740;-3.390;2023-11-22T00:51:58;102829.56;;;10.59;100.00
23261;BME280;11799;47.740;-3.390;2023-11-22T00:54:24;102834.72;;;10.63;100.00
23261;BME280;11799;47.740;-3.390;2023-11-22T00:56:51;102832.06;;;10.63;100.00
23261;BME280;11799;47.740;-3.390;2023-11-22T00:59:16;102828.50;;;10.64;100.00
23261;BME280;11799;47.740;-3.390;2023-11-22T01:01:42;102824.00;;;10.66;100.00
23261;BME280;11799;47.740;-3.390;2023-11-22T01:04:07;102824.13;;;10.63;100.00
23261;BME280;11799;47.740;-3.390;2023-11-22T01:06:34;102817.00;;;10.65;100.00
23261;BME280;11799;47.740;-3.390;2023-11-22T01:09:00;102815.63;;;10.56;100.00
23261;BME280;11799;47.740;-3.390;2023-11-22T01:11:25;102832.84;;;10.65;100.00
23261;BME280;11799;47.740;-3.390;2023-11-22T01:13:51;102820.91;;;10.56;100.00
23261;BME280;11799;47.740;-3.390;2023-11-22T01:16:17;102827.78;;;10.60;100.00
23261;BME280;11799;47.740;-3.390;2023-11-22T01:18:43;102801.91;;;10.48;100.00
23261;BME280;11799;47.740;-3.390;2023-11-22T01:21:08;102809.22;;;10.62;100.00
23261;BME280;11799;47.740;-3.390;2023-11-22T01:23:34;102819.84;;;10.60;100.00
23261;BME280;11799;47.740;-3.390;2023-11-22T01:26:00;102823.41;;;10.59;100.00
23261;BME280;11799;47.740;-3.390;2023-11-22T01:28:26;102816.56;;;10.55;100.00
23261;BME280;11799;47.740;-3.390;2023-11-22T01:31:03;102820.84;;;10.57;100.00
23261;BME280;11799;47.740;-3.390;2023-11-22T01:33:29;102816.34;;;10.59;100.00
23261;BME280;11799;47.740;-3.390;2023-11-22T01:35:57;102818.28;;;10.56;100.00
23261;BME280;11799;47.740;-3.390;2023-11-22T01:38:22;102824.28;;;10.59;100.00
23261;BME280;11799;47.740;-3.390;2023-11-22T01:40:51;102814.56;;;10.60;100.00
23261;BME280;11799;47.740;-3.390;2023-11-22T01:43:18;102817.22;;;10.60;100.00
23261;BME280;11799;47.740;-3.390;2023-11-22T01:45:44;102818.13;;;10.59;100.00
23261;BME280;11799;47.740;-3.390;2023-11-22T01:48:11;102827.00;;;10.58;100.00
23261;BME280;11799;47.740;-3.390;2023-11-22T01:50:38;102810.69;;;10.48;100.00
23261;BME280;11799;47.740;-3.390;2023-11-22T01:53:06;102834.78;;;10.61;100.00
23261;BME280;11799;47.740;-3.390;2023-11-22T01:55:32;102843.63;;;10.60;100.00
23261;BME280;11799;47.740;-3.390;2023-11-22T01:57:58;102852.34;;;10.62;100.00
23261;BME280;11799;47.740;-3.390;2023-11-22T02:00:26;102848.06;;;10.59;100.00
23261;BME280;11799;47.740;-3.390;2023-11-22T02:02:56;102861.06;;;10.64;100.00
23261;BME280;11799;47.740;-3.390;2023-11-22T02:05:21;102857.56;;;10.64;100.00
23261;BME280;11799;47.740;-3.390;2023-11-22T02:07:47;102861.06;;;10.64;100.00
23261;BME280;11799;47.740;-3.390;2023-11-22T02:10:12;102855.91;;;10.61;100.00
23261;BME280;11799;47.740;-3.390;2023-11-22T02:12:38;102854.06;;;10.63;100.00
23261;BME280;11799;47.740;-3.390;2023-11-22T02:15:05;102862.91;;;10.62;100.00
23261;BME280;11799;47.740;-3.390;2023-11-22T02:17:31;102860.19;;;10.64;100.00
23261;BME280;11799;47.740;-3.390;2023-11-22T02:19:57;102861.06;;;10.64;100.00
23261;BME280;11799;47.740;-3.390;2023-11-22T02:22:24;102868.97;;;10.64;100.00
23261;BME280;11799;47.740;-3.390;2023-11-22T02:24:49;102866.28;;;10.66;100.00
23261;BME280;11799;47.740;-3.390;2023-11-22T02:27:15;102871.56;;;10.66;100.00
23261;BME280;11799;47.740;-3.390;2023-11-22T02:29:40;102878.63;;;10.65;100.00
23261;BME280;11799;47.740;-3.390;2023-11-22T02:32:06;102883.91;;;10.65;100.00
23261;BME280;11799;47.740;-3.390;2023-11-22T02:34:31;102882.25;;;10.63;100.00
23261;BME280;11799;47.740;-3.390;2023-11-22T02:36:57;102893.69;;;10.63;100.00
23261;BME280;11799;47.740;-3.390;2023-11-22T02:39:28;102891.25;;;10.58;100.00
23261;BME280;11799;47.740;-3.390;2023-11-22T02:41:58;102897.13;;;10.65;100.00
23261;BME280;11799;47.740;-3.390;2023-11-22T02:44:24;102892.69;;;10.66;100.00
23261;BME280;11799;47.740;-3.390;2023-11-22T02:46:49;102896.34;;;10.63;100.00
23261;BME280;11799;47.740;-3.390;2023-11-22T02:49:15;102900.69;;;10.64;100.00
23261;BME280;11799;47.740;-3.390;2023-11-22T02:51:40;102903.41;;;10.63;100.00
23261;BME280;11799;47.740;-3.390;2023-11-22T02:54:06;102902.47;;;10.64;100.00
23261;BME280;11799;47.740;-3.390;2023-11-22T02:56:31;102900.75;;;10.63;100.00
23261;BME280;11799;47.740;-3.390;2023-11-22T02:58:57;102882.53;;;10.56;100.00
23261;BME280;11799;47.740;-3.390;2023-11-22T03:01:22;102896.19;;;10.66;100.00
23261;BME280;11799;47.740;-3.390;2023-11-22T03:03:48;102894.47;;;10.65;100.00
23261;BME280;11799;47.740;-3.390;2023-11-22T03:06:13;102897.25;;;10.62;100.00
23261;BME280;11799;47.740;-3.390;2023-11-22T03:08:40;102893.69;;;10.63;100.00
23261;BME280;11799;47.740;-3.390;2023-11-22T03:11:05;102893.56;;;10.66;100.00
23261;BME280;11799;47.740;-3.390;2023-11-22T03:13:32;102892.75;;;10.64;100.00
23261;BME280;11799;47.740;-3.390;2023-11-22T03:15:59;102892.69;;;10.66;100.00
23261;BME280;11799;47.740;-3.390;2023-11-22T03:18:24;102895.34;;;10.66;100.00
23261;BME280;11799;47.740;-3.390;2023-11-22T03:20:51;102897.06;;;10.67;100.00
23261;BME280;11799;47.740;-3.390;2023-11-22T03:23:19;102888.19;;;10.68;100.00
23261;BME280;11799;47.740;-3.390;2023-11-22T03:25:45;102890.78;;;10.69;100.00
23261;BME280;11799;47.740;-3.390;2023-11-22T03:28:12;102886.56;;;10.65;100.00
23261;BME280;11799;47.740;-3.390;2023-11-22T03:30:39;102896.25;;;10.65;100.00
23261;BME280;11799;47.740;-3.390;2023-11-22T03:33:05;102898.91;;;10.65;100.00
23261;BME280;11799;47.740;-3.390;2023-11-22T03:35:31;102904.13;;;10.66;100.00
23261;BME280;11799;47.740;-3.390;2023-11-22T03:37:56;102903.41;;;10.63;100.00
23261;BME280;11799;47.740;-3.390;2023-11-22T03:40:22;102911.19;;;10.66;100.00
23261;BME280;11799;47.740;-3.390;2023-11-22T03:42:47;102916.47;;;10.66;100.00
23261;BME280;11799;47.740;-3.390;2023-11-22T03:45:13;102916.47;;;10.66;100.00
23261;BME280;11799;47.740;-3.390;2023-11-22T03:47:39;102928.75;;;10.67;100.00
23261;BME280;11799;47.740;-3.390;2023-11-22T03:50:06;102924.41;;;10.66;100.00
23261;BME280;11799;47.740;-3.390;2023-11-22T03:52:32;102925.31;;;10.65;100.00
23261;BME280;11799;47.740;-3.390;2023-11-22T03:54:57;102918.19;;;10.67;100.00
23261;BME280;11799;47.740;-3.390;2023-11-22T03:57:23;102905.97;;;10.64;100.00
23261;BME280;11799;47.740;-3.390;2023-11-22T03:59:49;102912.38;;;10.58;100.00
23261;BME280;11799;47.740;-3.390;2023-11-22T04:02:14;102919.13;;;10.66;100.00
23261;BME280;11799;47.740;-3.390;2023-11-22T04:04:40;102925.53;;;10.60;100.00
23261;BME280;11799;47.740;-3.390;2023-11-22T04:07:07;102928.84;;;10.65;100.00
23261;BME280;11799;47.740;-3.390;2023-11-22T04:09:33;102935.09;;;10.63;100.00
23261;BME280;11799;47.740;-3.390;2023-11-22T04:11:59;102939.47;;;10.64;100.00
23261;BME280;11799;47.740;-3.390;2023-11-22T04:14:24;102928.09;;;10.62;100.00
23261;BME280;11799;47.740;-3.390;2023-11-22T04:16:52;102928.03;;;10.63;100.00
23261;BME280;11799;47.740;-3.390;2023-11-22T04:19:18;102940.47;;;10.61;100.00
23261;BME280;11799;47.740;-3.390;2023-11-22T04:21:43;102936.09;;;10.60;100.00
23261;BME280;11799;47.740;-3.390;2023-11-22T04:24:09;102923.81;;;10.59;100.00
23261;BME280;11799;47.740;-3.390;2023-11-22T04:26:35;102917.94;;;10.52;100.00
23261;BME280;11799;47.740;-3.390;2023-11-22T04:29:01;102923.88;;;10.57;100.00
23261;BME280;11799;47.740;-3.390;2023-11-22T04:31:27;102923.88;;;10.57;100.00
23261;BME280;11799;47.740;-3.390;2023-11-22T04:33:52;102930.03;;;10.58;100.00
23261;BME280;11799;47.740;-3.390;2023-11-22T04:36:19;102931.75;;;10.59;100.00
23261;BME280;11799;47.740;-3.390;2023-11-22T04:38:45;102938.88;;;10.57;100.00
23261;BME280;11799;47.740;-3.390;2023-11-22T04:41:10;102935.44;;;10.55;100.00
23261;BME280;11799;47.740;-3.390;2023-11-22T04:43:36;102940.78;;;10.53;100.00
23261;BME280;11799;47.740;-3.390;2023-11-22T04:46:02;102950.25;;;10.59;100.00
23261;BME280;11799;47.740;-3.390;2023-11-22T04:48:29;102946.94;;;10.54;100.00
23261;BME280;11799;47.740;-3.390;2023-11-22T04:50:55;102951.16;;;10.58;100.00
23261;BME280;11799;47.740;-3.390;2023-11-22T04:53:20;102959.16;;;10.56;100.00
23261;BME280;11799;47.740;-3.390;2023-11-22T04:55:46;102965.31;;;10.57;100.00
23261;BME280;11799;47.740;-3.390;2023-11-22T04:58:11;102968.88;;;10.56;100.00
23261;BME280;11799;47.740;-3.390;2023-11-22T05:00:37;102959.16;;;10.56;100.00
23261;BME280;11799;47.740;-3.390;2023-11-22T05:03:02;102969.72;;;10.56;100.00
23261;BME280;11799;47.740;-3.390;2023-11-22T05:05:28;102959.34;;;10.52;100.00
23261;BME280;11799;47.740;-3.390;2023-11-22T05:07:54;102975.00;;;10.56;100.00
23261;BME280;11799;47.740;-3.390;2023-11-22T05:10:19;102986.50;;;10.55;100.00
23261;BME280;11799;47.740;-3.390;2023-11-22T05:12:45;102974.41;;;10.50;100.00
23261;BME280;11799;47.740;-3.390;2023-11-22T05:15:10;102986.44;;;10.57;100.00
23261;BME280;11799;47.740;-3.390;2023-11-22T05:17:36;102988.22;;;10.56;100.00
23261;BME280;11799;47.740;-3.390;2023-11-22T05:20:02;102989.16;;;10.55;100.00
23261;BME280;11799;47.740;-3.390;2023-11-22T05:22:29;102991.78;;;10.55;100.00
23261;BME280;11799;47.740;-3.390;2023-11-22T05:24:55;102986.69;;;10.51;100.00
23261;BME280;11799;47.740;-3.390;2023-11-22T05:27:21;102976.13;;;10.51;100.00
23261;BME280;11799;47.740;-3.390;2023-11-22T05:29:47;102990.00;;;10.56;100.00
23261;BME280;11799;47.740;-3.390;2023-11-22T05:32:12;102994.44;;;10.55;100.00
23261;BME280;11799;47.740;-3.390;2023-11-22T05:34:38;102987.44;;;10.54;100.00
23261;BME280;11799;47.740;-3.390;2023-11-22T05:37:05;102997.00;;;10.57;100.00
23261;BME280;11799;47.740;-3.390;2023-11-22T05:39:31;102997.13;;;10.54;100.00
23261;BME280;11799;47.740;-3.390;2023-11-22T05:41:56;102994.44;;;10.55;100.00
23261;BME280;11799;47.740;-3.390;2023-11-22T05:44:22;102997.13;;;10.54;100.00
23261;BME280;11799;47.740;-3.390;2023-11-22T05:46:48;103000.56;;;10.56;100.00
23261;BME280;11799;47.740;-3.390;2023-11-22T05:49:13;103010.34;;;10.54;100.00
23261;BME280;11799;47.740;-3.390;2023-11-22T05:51:39;103008.44;;;10.57;100.00
23261;BME280;11799;47.740;-3.390;2023-11-22T05:54:04;103015.44;;;10.58;100.00
23261;BME280;11799;47.740;-3.390;2023-11-22T05:56:30;103019.00;;;10.57;100.00
23261;BME280;11799;47.740;-3.390;2023-11-22T05:58:56;103013.78;;;10.56;100.00
23261;BME280;11799;47.740;-3.390;2023-11-22T06:01:22;103020.84;;;10.55;100.00
23261;BME280;11799;47.740;-3.390;2023-11-22T06:03:48;103013.78;;;10.56;100.00
23261;BME280;11799;47.740;-3.390;2023-11-22T06:06:14;103008.63;;;10.53;100.00
23261;BME280;11799;47.740;-3.390;2023-11-22T06:08:39;102984.69;;;10.37;100.00
23261;BME280;11799;47.740;-3.390;2023-11-22T06:11:05;103013.19;;;10.49;100.00
23261;BME280;11799;47.740;-3.390;2023-11-22T06:13:31;103000.47;;;10.39;100.00
23261;BME280;11799;47.740;-3.390;2023-11-22T06:15:57;103009.69;;;10.49;100.00
23261;BME280;11799;47.740;-3.390;2023-11-22T06:18:22;103013.13;;;10.51;100.00
23261;BME280;11799;47.740;-3.390;2023-11-22T06:20:54;103012.19;;;10.52;100.00
23261;BME280;11799;47.740;-3.390;2023-11-22T06:23:19;103011.34;;;10.51;100.00
23261;BME280;11799;47.740;-3.390;2023-11-22T06:25:45;103010.53;;;10.49;100.00
23261;BME280;11799;47.740;-3.390;2023-11-22T06:28:10;103013.25;;;10.48;100.00
23261;BME280;11799;47.740;-3.390;2023-11-22T06:30:36;103008.03;;;10.46;100.00
23261;BME280;11799;47.740;-3.390;2023-11-22T06:33:01;103016.00;;;10.45;100.00
23261;BME280;11799;47.740;-3.390;2023-11-22T06:35:27;103004.22;;;10.33;100.00
23261;BME280;11799;47.740;-3.390;2023-11-22T06:37:53;103014.91;;;10.30;100.00
23261;BME280;11799;47.740;-3.390;2023-11-22T06:40:18;103028.84;;;10.34;100.00
23261;BME280;11799;47.740;-3.390;2023-11-22T06:42:46;103027.31;;;10.28;100.00
23261;BME280;11799;47.740;-3.390;2023-11-22T06:45:11;103030.03;;;10.27;100.00
23261;BME280;11799;47.740;-3.390;2023-11-22T06:47:41;103036.28;;;10.24;100.00
23261;BME280;11799;47.740;-3.390;2023-11-22T06:50:07;103032.94;;;10.19;100.00
23261;BME280;11799;47.740;-3.390;2023-11-22T06:52:41;103040.84;;;10.20;100.00
23261;BME280;11799;47.740;-3.390;2023-11-22T06:55:09;103044.50;;;10.16;100.00
23261;BME280;11799;47.740;-3.390;2023-11-22T06:57:35;103044.59;;;10.13;100.00
23261;BME280;11799;47.740;-3.390;2023-11-22T07:00:02;103050.13;;;10.07;100.00
23261;BME280;11799;47.740;-3.390;2023-11-22T07:02:31;103005.25;;;9.85;100.00
23261;BME280;11799;47.740;-3.390;2023-11-22T07:04:56;103030.25;;;9.99;100.00
23261;BME280;11799;47.740;-3.390;2023-11-22T07:07:25;103033.81;;;9.98;100.00
23261;BME280;11799;47.740;-3.390;2023-11-22T07:09:50;103045.28;;;9.97;100.00
23261;BME280;11799;47.740;-3.390;2023-11-22T07:12:16;103040.31;;;9.89;100.00
23261;BME280;11799;47.740;-3.390;2023-11-22T07:14:41;103055.59;;;10.03;100.00
23261;BME280;11799;47.740;-3.390;2023-11-22T07:17:08;103048.66;;;10.00;100.00
23261;BME280;11799;47.740;-3.390;2023-11-22T07:19:34;103051.25;;;10.02;100.00
23261;BME280;11799;47.740;-3.390;2023-11-22T07:22:06;103054.69;;;10.04;100.00
23261;BME280;11799;47.740;-3.390;2023-11-22T07:24:42;103046.88;;;10.01;100.00
23261;BME280;11799;47.740;-3.390;2023-11-22T07:27:11;103056.63;;;9.99;100.00
23261;BME280;11799;47.740;-3.390;2023-11-22T07:29:39;103059.28;;;9.99;100.00
23261;BME280;11799;47.740;-3.390;2023-11-22T07:32:06;103069.91;;;9.97;100.00
23261;BME280;11799;47.740;-3.390;2023-11-22T07:34:32;103068.25;;;9.94;100.00
23261;BME280;11799;47.740;-3.390;2023-11-22T07:36:59;103070.03;;;9.94;100.00
23261;BME280;11799;47.740;-3.390;2023-11-22T07:39:24;103072.78;;;9.91;100.00
23261;BME280;11799;47.740;-3.390;2023-11-22T07:41:55;103076.34;;;9.90;100.00
23261;BME280;11799;47.740;-3.390;2023-11-22T07:44:24;103074.63;;;9.89;100.00
23261;BME280;11799;47.740;-3.390;2023-11-22T07:46:50;103069.50;;;9.84;100.00
23261;BME280;11799;47.740;-3.390;2023-11-22T07:49:19;103072.31;;;9.81;100.00
23261;BME280;11799;47.740;-3.390;2023-11-22T07:51:46;103082.06;;;9.79;100.00
23261;BME280;11799;47.740;-3.390;2023-11-22T07:54:12;103087.50;;;9.75;100.00
23261;BME280;11799;47.740;-3.390;2023-11-22T07:56:41;103063.59;;;9.56;100.00
23261;BME280;11799;47.740;-3.390;2023-11-22T07:59:09;103099.16;;;9.69;100.00
23261;BME280;11799;47.740;-3.390;2023-11-22T08:01:36;103108.84;;;9.69;100.00
23261;BME280;11799;47.740;-3.390;2023-11-22T08:04:03;103116.75;;;9.69;100.00
23261;BME280;11799;47.740;-3.390;2023-11-22T08:06:31;103114.13;;;9.69;100.00
23261;BME280;11799;47.740;-3.390;2023-11-22T08:08:58;103117.56;;;9.71;100.00
23261;BME280;11799;47.740;-3.390;2023-11-22T08:11:27;103111.50;;;9.69;100.00
23261;BME280;11799;47.740;-3.390;2023-11-22T08:13:53;103120.78;;;9.79;100.00
23261;BME280;11799;47.740;-3.390;2023-11-22T08:16:23;103129.28;;;9.85;100.00
23261;BME280;11799;47.740;-3.390;2023-11-22T08:18:48;103138.88;;;9.88;100.00
23261;BME280;11799;47.740;-3.390;2023-11-22T08:21:14;103118.25;;;9.76;100.00
23261;BME280;11799;47.740;-3.390;2023-11-22T08:23:39;103115.56;;;9.77;100.00
23261;BME280;11799;47.740;-3.390;2023-11-22T08:26:05;103109.91;;;9.86;100.00
23261;BME280;11799;47.740;-3.390;2023-11-22T08:28:32;103115.41;;;10.04;100.00
23261;BME280;11799;47.740;-3.390;2023-11-22T08:30:59;103129.28;;;10.32;100.00
23261;BME280;11799;47.740;-3.390;2023-11-22T08:33:26;103135.50;;;10.51;100.00
23261;BME280;11799;47.740;-3.390;2023-11-22T08:35:52;103147.53;;;10.58;100.00
23261;BME280;11799;47.740;-3.390;2023-11-22T08:38:24;103152.44;;;10.68;100.00
23261;BME280;11799;47.740;-3.390;2023-11-22T08:40:52;103141.56;;;10.75;100.00
23261;BME280;11799;47.740;-3.390;2023-11-22T08:43:17;103154.41;;;10.84;100.00
23261;BME280;11799;47.740;-3.390;2023-11-22T08:45:49;103154.28;;;10.87;100.00
23261;BME280;11799;47.740;-3.390;2023-11-22T08:48:14;103154.09;;;10.92;100.00
23261;BME280;11799;47.740;-3.390;2023-11-22T08:50:41;103152.94;;;10.98;100.00
23261;BME280;11799;47.740;-3.390;2023-11-22T08:53:06;103152.59;;;11.05;100.00
23261;BME280;11799;47.740;-3.390;2023-11-22T08:55:33;103132.63;;;10.98;100.00
23261;BME280;11799;47.740;-3.390;2023-11-22T08:57:59;103142.75;;;11.09;100.00
23261;BME280;11799;47.740;-3.390;2023-11-22T09:00:25;103139.06;;;11.13;100.00
23261;BME280;11799;47.740;-3.390;2023-11-22T09:02:53;103142.88;;;11.06;100.00
23261;BME280;11799;47.740;-3.390;2023-11-22T09:05:20;103144.16;;;10.97;100.00
23261;BME280;11799;47.740;-3.390;2023-11-22T09:07:47;103134.72;;;10.91;100.00
23261;BME280;11799;47.740;-3.390;2023-11-22T09:10:13;103132.38;;;11.04;100.00
23261;BME280;11799;47.740;-3.390;2023-11-22T09:12:40;103149.78;;;11.10;100.00
23261;BME280;11799;47.740;-3.390;2023-11-22T09:15:12;103155.97;;;11.09;100.00
23261;BME280;11799;47.740;-3.390;2023-11-22T09:17:44;103148.03;;;11.09;100.00
23261;BME280;11799;47.740;-3.390;2023-11-22T09:20:14;103156.84;;;11.09;100.00
23261;BME280;11799;47.740;-3.390;2023-11-22T09:25:14;103155.78;;;11.13;100.00
23261;BME280;11799;47.740;-3.390;2023-11-22T09:27:42;103159.22;;;11.15;100.00
23261;BME280;11799;47.740;-3.390;2023-11-22T09:30:08;103156.66;;;11.14;100.00
23261;BME280;11799;47.740;-3.390;2023-11-22T09:32:45;103162.53;;;11.20;100.00
23261;BME280;11799;47.740;-3.390;2023-11-22T09:35:12;103158.03;;;11.22;100.00
23261;BME280;11799;47.740;-3.390;2023-11-22T09:37:39;103167.88;;;11.19;100.00
23261;BME280;11799;47.740;-3.390;2023-11-22T09:40:08;103157.31;;;11.19;100.00
23261;BME280;11799;47.740;-3.390;2023-11-22T09:42:34;103163.25;;;11.24;100.00
23261;BME280;11799;47.740;-3.390;2023-11-22T09:45:00;103163.25;;;11.24;100.00
23261;BME280;11799;47.740;-3.390;2023-11-22T09:47:27;103163.06;;;11.29;100.00
23261;BME280;11799;47.740;-3.390;2023-11-22T09:49:55;103143.81;;;11.25;100.00
23261;BME280;11799;47.740;-3.390;2023-11-22T09:52:25;103162.13;;;11.30;100.00
23261;BME280;11799;47.740;-3.390;2023-11-22T09:54:54;103154.19;;;11.30;100.00
23261;BME280;11799;47.740;-3.390;2023-11-22T09:57:22;103143.75;;;11.27;100.00
23261;BME280;11799;47.740;-3.390;2023-11-22T09:59:50;103152.75;;;11.22;100.00
23261;BME280;11799;47.740;-3.390;2023-11-22T10:02:19;103154.47;;;11.23;100.00
23261;BME280;11799;47.740;-3.390;2023-11-22T10:04:46;103150.22;;;11.19;100.00
23261;BME280;11799;47.740;-3.390;2023-11-22T10:07:14;103152.81;;;11.21;100.00
23261;BME280;11799;47.740;-3.390;2023-11-22T10:09:39;103168.34;;;11.29;100.00
23261;BME280;11799;47.740;-3.390;2023-11-22T10:12:06;103171.00;;;11.29;100.00
23261;BME280;11799;47.740;-3.390;2023-11-22T10:14:32;103184.03;;;11.33;100.00
23261;BME280;11799;47.740;-3.390;2023-11-22T10:17:00;103178.78;;;11.32;100.00
23261;BME280;11799;47.740;-3.390;2023-11-22T10:19:27;103176.88;;;11.35;100.00
23261;BME280;11799;47.740;-3.390;2023-11-22T10:22:08;103183.09;;;11.34;100.00
23261;BME280;11799;47.740;-3.390;2023-11-22T10:24:34;103183.03;;;11.36;100.00
23261;BME280;11799;47.740;-3.390;2023-11-22T10:27:01;103191.91;;;11.35;100.00
23261;BME280;11799;47.740;-3.390;2023-11-22T10:29:27;103187.31;;;11.38;100.00
23261;BME280;11799;47.740;-3.390;2023-11-22T10:31:52;103200.50;;;11.40;100.00
23261;BME280;11799;47.740;-3.390;2023-11-22T10:34:22;103195.25;;;11.38;100.00
23261;BME280;11799;47.740;-3.390;2023-11-22T10:36:48;103197.78;;;11.41;100.00
23261;BME280;11799;47.740;-3.390;2023-11-22T10:39:20;103199.44;;;11.44;100.00
23261;BME280;11799;47.740;-3.390;2023-11-22T10:41:47;103196.66;;;11.47;100.00
23261;BME280;11799;47.740;-3.390;2023-11-22T10:44:15;103148.78;;;11.33;100.00
23261;BME280;11799;47.740;-3.390;2023-11-22T10:46:41;103177.06;;;11.51;100.00
23261;BME280;11799;47.740;-3.390;2023-11-22T10:49:06;103169.75;;;11.56;100.00
23261;BME280;11799;47.740;-3.390;2023-11-22T10:51:33;103157.47;;;11.55;100.00
23261;BME280;11799;47.740;-3.390;2023-11-22T10:54:00;103158.09;;;11.60;100.00
23261;BME280;11799;47.740;-3.390;2023-11-22T10:56:35;103154.31;;;11.66;100.00
23261;BME280;11799;47.740;-3.390;2023-11-22T10:59:08;103141.09;;;11.66;100.00
23261;BME280;11799;47.740;-3.390;2023-11-22T11:01:35;103155.59;;;11.77;100.00
23261;BME280;11799;47.740;-3.390;2023-11-22T11:06:33;103134.72;;;11.70;100.00
23261;BME280;11799;47.740;-3.390;2023-11-22T11:09:01;103145.03;;;11.76;100.00
23261;BME280;11799;47.740;-3.390;2023-11-22T11:11:31;103148.50;;;11.78;100.00
23261;BME280;11799;47.740;-3.390;2023-11-22T11:13:57;103139.50;;;11.82;100.00
23261;BME280;11799;47.740;-3.390;2023-11-22T11:16:24;103138.84;;;11.77;100.00
23261;BME280;11799;47.740;-3.390;2023-11-22T11:18:50;103132.66;;;11.76;100.00
23261;BME280;11799;47.740;-3.390;2023-11-22T11:21:16;103137.16;;;11.74;100.00
23261;BME280;11799;47.740;-3.390;2023-11-22T11:23:44;103146.91;;;11.74;100.00
23261;BME280;11799;47.740;-3.390;2023-11-22T11:26:15;103138.84;;;11.77;100.00
23261;BME280;11799;47.740;-3.390;2023-11-22T11:28:48;103130.84;;;11.78;100.00
23261;BME280;11799;47.740;-3.390;2023-11-22T11:31:20;103122.03;;;11.78;100.00
23261;BME280;11799;47.740;-3.390;2023-11-22T11:36:25;103129.78;;;11.82;100.00
23261;BME280;11799;47.740;-3.390;2023-11-22T11:38:52;103097.94;;;11.84;100.00
23261;BME280;11799;47.740;-3.390;2023-11-22T11:41:18;103111.09;;;11.85;100.00
23261;BME280;11799;47.740;-3.390;2023-11-22T11:43:48;103103.06;;;11.87;100.00
23261;BME280;11799;47.740;-3.390;2023-11-22T11:46:15;103104.78;;;11.88;100.00
23261;BME280;11799;47.740;-3.390;2023-11-22T11:48:45;103100.44;;;11.87;100.00
23261;BME280;11799;47.740;-3.390;2023-11-22T11:51:14;103103.78;;;11.90;100.00
23261;BME280;11799;47.740;-3.390;2023-11-22T11:53:41;103112.53;;;11.93;100.00
23261;BME280;11799;47.740;-3.390;2023-11-22T11:56:07;103108.88;;;11.95;100.00
23261;BME280;11799;47.740;-3.390;2023-11-22T11:58:34;103099.94;;;11.98;100.00
23261;BME280;11799;47.740;-3.390;2023-11-22T12:00:59;103098.06;;;12.00;100.00
23261;BME280;11799;47.740;-3.390;2023-11-22T12:03:25;103105.00;;;12.02;100.00
23261;BME280;11799;47.740;-3.390;2023-11-22T12:05:50;103105.00;;;12.02;100.00
23261;BME280;11799;47.740;-3.390;2023-11-22T12:08:16;103105.66;;;12.07;100.00
23261;BME280;11799;47.740;-3.390;2023-11-22T12:10:43;103116.69;;;12.15;100.00
23261;BME280;11799;47.740;-3.390;2023-11-22T12:13:09;103108.75;;;12.15;100.00
23261;BME280;11799;47.740;-3.390;2023-11-22T12:15:35;103108.81;;;12.14;100.00
23261;BME280;11799;47.740;-3.390;2023-11-22T12:18:01;103109.69;;;12.14;100.00
23261;BME280;11799;47.740;-3.390;2023-11-22T12:20:27;103102.78;;;12.12;100.00
23261;BME280;11799;47.740;-3.390;2023-11-22T12:22:59;103114.06;;;12.15;100.00
23261;BME280;11799;47.740;-3.390;2023-11-22T12:25:27;103116.88;;;12.12;100.00
23261;BME280;11799;47.740;-3.390;2023-11-22T12:27:56;103110.81;;;12.10;100.00
23261;BME280;11799;47.740;-3.390;2023-11-22T12:30:28;103109.09;;;12.09;100.00
23261;BME280;11799;47.740;-3.390;2023-11-22T12:33:10;103092.06;;;11.96;100.00
23261;BME280;11799;47.740;-3.390;2023-11-22T12:35:42;103109.16;;;12.08;100.00